createdAt,value
2018-08-12T00:00:19.586Z,67.70
2018-08-12T00:02:48.785Z,68.00
2018-08-12T00:05:17.944Z,68.20
2018-08-12T00:07:47.372Z,68.30
2018-08-12T00:10:16.585Z,68.40
2018-08-12T00:12:45.798Z,68.50
2018-08-12T00:15:17.485Z,68.70
2018-08-12T00:17:46.617Z,68.50
2018-08-12T00:20:18.708Z,68.50
2018-08-12T00:22:48.566Z,68.50
2018-08-12T00:25:19.200Z,68.40
2018-08-12T00:27:48.410Z,68.50
2018-08-12T00:30:18.600Z,68.40
2018-08-12T00:32:47.824Z,68.80
2018-08-12T00:35:18.057Z,69.90
2018-08-12T00:37:53.810Z,69.10
2018-08-12T00:40:22.980Z,69.00
2018-08-12T00:42:52.141Z,69.30
2018-08-12T00:45:21.789Z,69.30
2018-08-12T00:47:51.198Z,69.40
2018-08-12T00:50:20.686Z,69.30
2018-08-12T00:52:49.877Z,69.60
2018-08-12T00:55:19.378Z,69.00
2018-08-12T00:57:49.042Z,69.80
2018-08-12T01:00:20.469Z,70.00
2018-08-12T01:02:56.254Z,70.10
2018-08-12T01:05:25.445Z,70.10
2018-08-12T01:07:54.638Z,70.40
2018-08-12T01:10:23.797Z,70.80
2018-08-12T01:12:52.982Z,70.80
2018-08-12T01:15:22.650Z,70.90
2018-08-12T01:17:51.809Z,71.20
2018-08-12T01:20:25.831Z,71.20
2018-08-12T01:22:54.982Z,71.60
2018-08-12T01:25:24.346Z,71.70
2018-08-12T01:27:53.569Z,72.00
2018-08-12T01:30:23.169Z,72.00
2018-08-12T01:32:52.379Z,72.10
2018-08-12T01:35:21.528Z,72.40
2018-08-12T01:37:50.705Z,72.40
2018-08-12T01:40:20.457Z,72.80
2018-08-12T01:42:49.636Z,72.80
2018-08-12T01:45:20.594Z,72.70
2018-08-12T01:47:49.771Z,72.90
2018-08-12T01:50:19.881Z,72.90
2018-08-12T01:52:49.037Z,72.90
2018-08-12T01:55:18.401Z,73.10
2018-08-12T01:57:47.605Z,73.00
2018-08-12T02:00:19.269Z,73.20
2018-08-12T02:02:48.762Z,73.20
2018-08-12T02:05:18.444Z,73.20
2018-08-12T02:07:47.753Z,73.20
2018-08-12T02:10:16.922Z,73.20
2018-08-12T02:12:46.076Z,73.30
2018-08-12T02:15:15.294Z,73.30
2018-08-12T02:17:44.454Z,73.40
2018-08-12T02:20:13.720Z,73.50
2018-08-12T02:22:43.230Z,73.70
2018-08-12T02:25:12.773Z,73.70
2018-08-12T02:27:41.930Z,73.80
2018-08-12T02:30:12.769Z,73.80
2018-08-12T02:32:42.981Z,74.10
2018-08-12T02:35:12.207Z,73.70
2018-08-12T02:37:42.669Z,73.90
2018-08-12T02:40:15.073Z,73.60
2018-08-12T02:42:44.243Z,73.60
2018-08-12T02:45:15.745Z,73.40
2018-08-12T02:47:45.132Z,73.40
2018-08-12T02:50:14.393Z,73.30
2018-08-12T02:52:43.585Z,73.60
2018-08-12T02:55:12.821Z,73.40
2018-08-12T02:57:42.006Z,73.50
2018-08-12T03:00:12.677Z,73.60
2018-08-12T03:02:41.881Z,73.50
2018-08-12T03:05:11.101Z,73.70
2018-08-12T03:07:40.306Z,73.60
2018-08-12T03:10:09.868Z,73.30
2018-08-12T03:12:39.178Z,73.30
2018-08-12T03:15:10.226Z,73.20
2018-08-12T03:17:39.621Z,73.60
2018-08-12T03:20:10.723Z,73.60
2018-08-12T03:22:39.909Z,73.90
2018-08-12T03:25:15.262Z,73.70
2018-08-12T03:27:44.434Z,73.70
2018-08-12T03:30:13.680Z,73.70
2018-08-12T03:32:42.777Z,73.90
2018-08-12T03:35:11.963Z,74.00
2018-08-12T03:37:41.139Z,74.20
2018-08-12T03:40:12.970Z,74.40
2018-08-12T03:42:42.741Z,74.30
2018-08-12T03:45:11.924Z,74.30
2018-08-12T03:47:41.109Z,73.90
2018-08-12T03:50:11.391Z,74.00
2018-08-12T03:52:40.764Z,74.30
2018-08-12T03:55:16.569Z,74.00
2018-08-12T03:57:45.760Z,74.30
2018-08-12T04:00:19.771Z,74.10
2018-08-12T04:02:49.489Z,74.00
2018-08-12T04:05:19.049Z,74.10
2018-08-12T04:07:48.216Z,74.30
2018-08-12T04:10:17.383Z,74.30
2018-08-12T04:12:46.618Z,74.20
2018-08-12T04:15:15.784Z,73.90
2018-08-12T04:17:45.001Z,74.30
2018-08-12T04:20:14.169Z,73.70
2018-08-12T04:22:43.380Z,74.00
2018-08-12T04:25:12.560Z,74.50
2018-08-12T04:27:41.740Z,74.20
2018-08-12T04:30:11.541Z,73.80
2018-08-12T04:32:40.933Z,73.80
2018-08-12T04:35:10.132Z,74.00
2018-08-12T04:37:39.351Z,74.00
2018-08-12T04:40:08.729Z,73.70
2018-08-12T04:42:38.012Z,74.00
2018-08-12T04:45:07.432Z,75.10
2018-08-12T04:47:36.848Z,73.70
2018-08-12T04:50:06.696Z,73.70
2018-08-12T04:52:36.149Z,73.70
2018-08-12T04:55:05.984Z,73.50
2018-08-12T04:57:35.148Z,74.10
2018-08-12T05:00:05.325Z,73.90
2018-08-12T05:02:34.508Z,74.30
2018-08-12T05:05:03.754Z,74.60
2018-08-12T05:07:32.992Z,74.30
2018-08-12T05:10:02.144Z,74.00
2018-08-12T05:12:31.347Z,73.70
2018-08-12T05:15:00.541Z,73.20
2018-08-12T05:17:29.745Z,72.60
2018-08-12T05:19:58.974Z,72.30
2018-08-12T05:22:28.156Z,71.80
2018-08-12T05:24:57.333Z,71.90
2018-08-12T05:27:26.512Z,72.30
2018-08-12T05:29:55.717Z,71.70
2018-08-12T05:32:24.893Z,71.90
2018-08-12T05:34:54.093Z,71.50
2018-08-12T05:37:23.259Z,71.30
2018-08-12T05:39:52.502Z,71.20
2018-08-12T05:42:21.798Z,71.20
2018-08-12T05:44:51.006Z,71.30
2018-08-12T05:47:20.240Z,70.90
2018-08-12T05:49:49.408Z,71.20
2018-08-12T05:52:18.611Z,71.30
2018-08-12T05:54:47.762Z,70.80
2018-08-12T05:57:17.001Z,70.90
2018-08-12T05:59:46.105Z,71.20
2018-08-12T06:02:15.268Z,71.00
2018-08-12T06:04:44.571Z,71.10
2018-08-12T06:07:13.717Z,71.30
2018-08-12T06:09:42.921Z,71.00
2018-08-12T06:12:12.106Z,71.00
2018-08-12T06:14:41.281Z,71.20
2018-08-12T06:17:10.441Z,71.20
2018-08-12T06:19:39.608Z,71.20
2018-08-12T06:22:08.822Z,71.30
2018-08-12T06:24:37.990Z,70.70
2018-08-12T06:27:07.221Z,71.20
2018-08-12T06:29:36.417Z,71.00
2018-08-12T06:32:05.604Z,70.90
2018-08-12T06:34:34.777Z,70.40
2018-08-12T06:37:04.010Z,70.10
2018-08-12T06:39:33.232Z,70.30
2018-08-12T06:42:02.388Z,70.10
2018-08-12T06:44:31.555Z,69.70
2018-08-12T06:47:00.773Z,69.80
2018-08-12T06:49:29.958Z,69.70
2018-08-12T06:51:59.187Z,69.40
2018-08-12T06:54:28.301Z,69.80
2018-08-12T06:56:57.497Z,70.20
2018-08-12T06:59:26.662Z,70.20
2018-08-12T07:01:55.836Z,70.60
2018-08-12T07:04:25.007Z,70.70
2018-08-12T07:06:54.220Z,70.80
2018-08-12T07:09:23.433Z,70.20
2018-08-12T07:11:52.783Z,69.70
2018-08-12T07:14:22.038Z,69.70
2018-08-12T07:16:51.207Z,69.30
2018-08-12T07:19:20.361Z,68.60
2018-08-12T07:21:49.773Z,68.20
2018-08-12T07:24:18.981Z,68.40
2018-08-12T07:26:48.198Z,68.50
2018-08-12T07:29:17.621Z,68.60
2018-08-12T07:31:46.794Z,68.80
2018-08-12T07:34:15.992Z,67.40
2018-08-12T07:36:45.169Z,67.40
2018-08-12T07:39:14.329Z,68.40
2018-08-12T07:41:43.487Z,66.80
2018-08-12T07:44:12.693Z,67.60
2018-08-12T07:46:41.855Z,67.90
2018-08-12T07:49:11.061Z,67.30
2018-08-12T07:51:40.243Z,65.40
2018-08-12T07:54:09.440Z,66.70
2018-08-12T07:56:38.597Z,65.60
2018-08-12T07:59:07.767Z,65.20
2018-08-12T08:01:36.955Z,65.90
2018-08-12T08:04:06.125Z,64.70
2018-08-12T08:06:35.325Z,64.50
2018-08-12T08:09:07.705Z,64.90
2018-08-12T08:11:37.309Z,63.70
2018-08-12T08:14:06.698Z,64.40
2018-08-12T08:16:35.909Z,63.20
2018-08-12T08:19:05.083Z,62.70
2018-08-12T08:21:34.263Z,62.20
2018-08-12T08:24:03.470Z,60.60
2018-08-12T08:26:32.637Z,59.70
2018-08-12T08:29:01.801Z,59.10
2018-08-12T08:31:31.054Z,57.10
2018-08-12T08:34:00.176Z,58.90
2018-08-12T08:36:29.336Z,57.80
2018-08-12T08:38:58.532Z,58.80
2018-08-12T08:41:27.725Z,57.80
2018-08-12T08:43:56.977Z,58.00
2018-08-12T08:46:26.149Z,57.40
2018-08-12T08:48:55.684Z,55.60
2018-08-12T08:51:24.875Z,56.10
2018-08-12T08:53:54.057Z,56.50
2018-08-12T08:56:23.233Z,55.50
2018-08-12T08:58:52.413Z,55.10
2018-08-12T09:01:21.650Z,55.60
2018-08-12T09:03:50.793Z,55.30
2018-08-12T09:06:19.964Z,54.80
2018-08-12T09:08:49.262Z,53.70
2018-08-12T09:11:18.309Z,54.00
2018-08-12T09:13:47.517Z,53.90
2018-08-12T09:16:16.708Z,53.90
2018-08-12T09:18:45.864Z,53.80
2018-08-12T09:21:15.082Z,52.50
2018-08-12T09:23:44.253Z,54.70
2018-08-12T09:26:13.482Z,55.50
2018-08-12T09:28:42.680Z,55.40
2018-08-12T09:31:11.866Z,55.10
2018-08-12T09:33:41.071Z,53.20
2018-08-12T09:36:10.231Z,53.00
2018-08-12T09:38:39.438Z,52.20
2018-08-12T09:41:08.689Z,52.30
2018-08-12T09:43:37.951Z,52.70
2018-08-12T09:46:07.374Z,51.90
2018-08-12T09:48:36.583Z,51.90
2018-08-12T09:51:05.781Z,51.60
2018-08-12T09:53:34.969Z,51.40
2018-08-12T09:56:04.133Z,51.50
2018-08-12T09:58:33.425Z,50.40
2018-08-12T10:01:02.582Z,49.50
2018-08-12T10:03:31.797Z,51.40
2018-08-12T10:06:01.049Z,51.80
2018-08-12T10:08:30.209Z,49.00
2018-08-12T10:10:59.422Z,52.30
2018-08-12T10:13:28.596Z,52.20
2018-08-12T10:15:57.802Z,50.50
2018-08-12T10:18:26.984Z,51.80
2018-08-12T10:20:56.155Z,51.70
2018-08-12T10:23:25.312Z,48.20
2018-08-12T10:25:54.492Z,49.90
2018-08-12T10:28:23.689Z,50.20
2018-08-12T10:30:52.914Z,48.90
2018-08-12T10:33:22.093Z,51.30
2018-08-12T10:35:51.322Z,50.30
2018-08-12T10:38:20.492Z,50.60
2018-08-12T10:40:49.713Z,51.10
2018-08-12T10:43:18.897Z,51.20
2018-08-12T10:45:48.096Z,51.50
2018-08-12T10:48:17.284Z,51.90
2018-08-12T10:50:46.627Z,49.00
2018-08-12T10:53:15.774Z,51.70
2018-08-12T10:55:44.969Z,51.50
2018-08-12T10:58:14.146Z,51.70
2018-08-12T11:00:43.325Z,50.50
2018-08-12T11:03:12.621Z,49.20
2018-08-12T11:05:41.993Z,50.00
2018-08-12T11:08:11.214Z,49.00
2018-08-12T11:10:40.392Z,51.10
2018-08-12T11:13:09.565Z,50.60
2018-08-12T11:15:38.745Z,49.90
2018-08-12T11:18:08.017Z,49.50
2018-08-12T11:20:37.377Z,50.80
2018-08-12T11:23:06.769Z,48.60
2018-08-12T11:25:35.998Z,49.40
2018-08-12T11:28:05.216Z,50.20
2018-08-12T11:30:34.484Z,50.60
2018-08-12T11:33:03.701Z,49.70
2018-08-12T11:35:32.873Z,48.80
2018-08-12T11:38:02.096Z,48.10
2018-08-12T11:40:31.317Z,46.30
2018-08-12T11:43:00.484Z,49.50
2018-08-12T11:45:29.777Z,48.40
2018-08-12T11:47:58.985Z,49.70
2018-08-12T11:50:28.202Z,48.10
2018-08-12T11:52:57.465Z,47.50
2018-08-12T11:58:06.903Z,47.30
2018-08-12T12:00:36.069Z,48.90
2018-08-12T12:03:05.253Z,50.40
2018-08-12T12:05:34.506Z,48.40
2018-08-12T12:08:03.717Z,46.70
2018-08-12T12:10:32.913Z,48.10
2018-08-12T12:13:02.110Z,49.20
2018-08-12T12:15:31.313Z,51.40
2018-08-12T12:18:00.524Z,47.90
2018-08-12T12:20:29.746Z,47.30
2018-08-12T12:22:58.899Z,47.30
2018-08-12T12:25:28.079Z,47.80
2018-08-12T12:27:57.263Z,47.80
2018-08-12T12:30:26.490Z,47.80
2018-08-12T12:32:55.684Z,49.20
2018-08-12T12:35:24.914Z,47.50
2018-08-12T12:37:54.049Z,46.70
2018-08-12T12:40:23.270Z,48.20
2018-08-12T12:42:52.444Z,49.40
2018-08-12T12:45:21.628Z,49.00
2018-08-12T12:47:50.839Z,49.40
2018-08-12T12:50:22.305Z,50.10
2018-08-12T12:52:52.294Z,49.80
2018-08-12T12:55:22.637Z,49.20
2018-08-12T12:57:51.842Z,49.40
2018-08-12T13:00:21.857Z,48.10
2018-08-12T13:02:51.785Z,46.50
2018-08-12T13:05:21.898Z,46.20
2018-08-12T13:07:51.377Z,47.70
2018-08-12T13:10:21.085Z,48.40
2018-08-12T13:12:50.393Z,49.50
2018-08-12T13:15:19.552Z,48.70
2018-08-12T13:17:48.752Z,46.00
2018-08-12T13:20:19.004Z,47.20
2018-08-12T13:22:49.039Z,46.30
2018-08-12T13:25:20.164Z,48.60
2018-08-12T13:27:49.421Z,48.10
2018-08-12T13:30:19.682Z,45.80
2018-08-12T13:32:49.598Z,45.90
2018-08-12T13:35:18.828Z,46.80
2018-08-12T13:37:48.045Z,49.20
2018-08-12T13:40:17.826Z,47.50
2018-08-12T13:42:47.534Z,47.60
2018-08-12T13:45:16.872Z,49.40
2018-08-12T13:47:46.975Z,47.50
2018-08-12T13:50:22.584Z,48.60
2018-08-12T13:52:52.325Z,50.30
2018-08-12T13:55:22.402Z,48.50
2018-08-12T13:57:52.446Z,47.50
2018-08-12T14:00:22.957Z,46.30
2018-08-12T14:02:52.142Z,49.00
2018-08-12T14:05:21.625Z,47.50
2018-08-12T14:07:51.397Z,49.20
2018-08-12T14:10:20.585Z,49.40
2018-08-12T14:12:49.789Z,48.00
2018-08-12T14:15:19.930Z,48.40
2018-08-12T14:17:49.942Z,48.40
2018-08-12T14:20:20.217Z,47.40
2018-08-12T14:22:49.408Z,46.70
2018-08-12T14:25:18.592Z,48.80
2018-08-12T14:27:47.778Z,47.50
2018-08-12T14:30:19.373Z,48.10
2018-08-12T14:32:49.225Z,47.50
2018-08-12T14:35:18.606Z,47.10
2018-08-12T14:37:47.818Z,47.20
2018-08-12T14:40:17.034Z,48.80
2018-08-12T14:42:46.245Z,49.30
2018-08-12T14:45:16.441Z,48.40
2018-08-12T14:47:46.021Z,48.10
2018-08-12T14:50:19.564Z,48.50
2018-08-12T14:52:48.782Z,46.70
2018-08-12T14:55:19.865Z,47.50
2018-08-12T14:57:49.123Z,46.40
2018-08-12T15:00:20.038Z,48.70
2018-08-12T15:02:50.396Z,47.70
2018-08-12T15:05:20.041Z,48.00
2018-08-12T15:07:49.267Z,48.10
2018-08-12T15:10:18.413Z,48.50
2018-08-12T15:12:47.645Z,49.00
2018-08-12T15:15:17.383Z,48.50
2018-08-12T15:17:47.025Z,49.80
2018-08-12T15:20:16.980Z,49.80
2018-08-12T15:22:46.252Z,49.20
2018-08-12T15:25:18.158Z,49.40
2018-08-12T15:27:47.724Z,49.80
2018-08-12T15:30:16.929Z,50.00
2018-08-12T15:32:46.173Z,49.70
2018-08-12T15:35:15.364Z,49.80
2018-08-12T15:37:44.572Z,49.60
2018-08-12T15:40:15.237Z,50.20
2018-08-12T15:42:44.784Z,50.30
2018-08-12T15:45:15.372Z,50.60
2018-08-12T15:47:45.205Z,50.40
2018-08-12T15:50:14.629Z,50.70
2018-08-12T15:52:45.154Z,50.50
2018-08-12T15:55:14.627Z,51.30
2018-08-12T15:57:43.817Z,51.50
2018-08-12T16:00:16.940Z,50.90
2018-08-12T16:02:46.456Z,50.40
2018-08-12T16:05:15.702Z,50.40
2018-08-12T16:07:45.824Z,50.90
2018-08-12T16:10:18.919Z,50.80
2018-08-12T16:12:49.109Z,51.40
2018-08-12T16:15:18.317Z,51.50
2018-08-12T16:17:47.485Z,51.70
2018-08-12T16:20:16.674Z,51.50
2018-08-12T16:22:45.825Z,51.60
2018-08-12T16:25:18.370Z,52.10
2018-08-12T16:27:47.561Z,52.90
2018-08-12T16:30:18.257Z,52.10
2018-08-12T16:32:47.657Z,51.90
2018-08-12T16:35:17.692Z,51.80
2018-08-12T16:37:47.582Z,52.00
2018-08-12T16:40:19.038Z,52.40
2018-08-12T16:42:48.516Z,52.30
2018-08-12T16:45:18.274Z,52.10
2018-08-12T16:47:47.803Z,52.20
2018-08-12T16:50:16.967Z,51.90
2018-08-12T16:52:46.371Z,51.90
2018-08-12T16:55:17.288Z,52.30
2018-08-12T16:57:47.109Z,52.90
2018-08-12T17:00:18.732Z,52.40
2018-08-12T17:02:48.356Z,52.90
2018-08-12T17:05:20.229Z,53.10
2018-08-12T17:07:49.716Z,52.90
2018-08-12T17:10:19.566Z,52.90
2018-08-12T17:12:48.773Z,52.70
2018-08-12T17:15:19.574Z,52.70
2018-08-12T17:17:49.096Z,52.50
2018-08-12T17:20:20.124Z,52.90
2018-08-12T17:22:49.505Z,53.00
2018-08-12T17:25:18.829Z,53.10
2018-08-12T17:27:47.993Z,53.10
2018-08-12T17:30:17.835Z,53.70
2018-08-12T17:32:46.994Z,54.30
2018-08-12T17:35:16.181Z,54.00
2018-08-12T17:37:45.922Z,53.50
2018-08-12T17:40:15.812Z,53.60
2018-08-12T17:42:44.985Z,53.50
2018-08-12T17:45:14.841Z,53.70
2018-08-12T17:47:44.152Z,54.20
2018-08-12T17:50:14.664Z,54.40
2018-08-12T17:52:43.890Z,55.30
2018-08-12T17:55:13.065Z,55.40
2018-08-12T17:57:42.261Z,54.80
2018-08-12T18:00:14.133Z,54.60
2018-08-12T18:02:43.463Z,54.90
2018-08-12T18:05:12.625Z,55.80
2018-08-12T18:07:42.188Z,56.00
2018-08-12T18:10:11.371Z,56.10
2018-08-12T18:12:40.527Z,56.50
2018-08-12T18:15:11.477Z,56.70
2018-08-12T18:17:41.274Z,57.00
2018-08-12T18:20:10.738Z,57.10
2018-08-12T18:22:39.942Z,57.10
2018-08-12T18:25:11.022Z,57.20
2018-08-12T18:27:40.376Z,58.60
2018-08-12T18:30:12.422Z,58.50
2018-08-12T18:32:41.934Z,59.00
2018-08-12T18:35:11.760Z,59.80
2018-08-12T18:37:41.129Z,59.90
2018-08-12T18:40:11.551Z,59.50
2018-08-12T18:42:40.753Z,59.60
2018-08-12T18:45:09.929Z,59.80
2018-08-12T18:47:39.145Z,59.20
2018-08-12T18:50:10.142Z,59.70
2018-08-12T18:52:39.680Z,59.80
2018-08-12T18:55:11.009Z,59.70
2018-08-12T18:57:40.226Z,59.90
2018-08-12T19:00:12.366Z,60.10
2018-08-12T19:02:41.627Z,60.20
2018-08-12T19:05:11.922Z,60.80
2018-08-12T19:07:41.137Z,60.20
2018-08-12T19:10:11.205Z,60.60
2018-08-12T19:12:41.022Z,60.80
2018-08-12T19:15:11.257Z,61.20
2018-08-12T19:17:40.764Z,61.00
2018-08-12T19:20:10.873Z,61.10
2018-08-12T19:22:40.285Z,61.50
2018-08-12T19:25:10.388Z,61.60
2018-08-12T19:27:39.588Z,60.60
2018-08-12T19:30:11.632Z,61.50
2018-08-12T19:32:40.845Z,61.40
2018-08-12T19:35:10.793Z,60.90
2018-08-12T19:37:40.037Z,61.20
2018-08-12T19:40:09.670Z,61.60
2018-08-12T19:42:39.201Z,62.60
2018-08-12T19:45:10.013Z,63.10
2018-08-12T19:47:39.155Z,62.40
2018-08-12T19:50:08.897Z,62.50
2018-08-12T19:52:38.146Z,62.60
2018-08-12T19:55:07.946Z,63.10
2018-08-12T19:57:37.177Z,63.00
2018-08-12T20:00:09.347Z,62.80
2018-08-12T20:02:38.485Z,63.20
2018-08-12T20:05:07.780Z,63.20
2018-08-12T20:07:36.984Z,63.70
2018-08-12T20:10:07.989Z,63.60
2018-08-12T20:12:37.186Z,64.50
2018-08-12T20:15:08.545Z,64.40
2018-08-12T20:17:37.885Z,64.40
2018-08-12T20:20:09.109Z,64.20
2018-08-12T20:22:38.333Z,64.00
2018-08-12T20:25:07.936Z,64.50
2018-08-12T20:27:37.124Z,64.50
2018-08-12T20:30:09.270Z,64.60
2018-08-12T20:32:38.441Z,64.80
2018-08-12T20:35:07.672Z,64.40
2018-08-12T20:37:36.857Z,64.00
2018-08-12T20:40:07.337Z,63.70
2018-08-12T20:42:36.552Z,62.40
2018-08-12T20:45:06.293Z,61.80
2018-08-12T20:47:35.665Z,60.70
2018-08-12T20:50:06.161Z,60.50
2018-08-12T20:52:35.513Z,60.40
2018-08-12T20:55:05.069Z,60.00
2018-08-12T20:57:34.277Z,60.40
2018-08-12T21:00:03.469Z,59.80
2018-08-12T21:02:32.649Z,60.80
2018-08-12T21:05:01.877Z,62.10
2018-08-12T21:07:31.189Z,62.60
2018-08-12T21:10:00.373Z,60.70
2018-08-12T21:12:29.565Z,60.90
2018-08-12T21:14:58.809Z,60.60
2018-08-12T21:17:28.014Z,60.80
2018-08-12T21:19:57.245Z,60.90
2018-08-12T21:22:26.477Z,60.40
2018-08-12T21:24:55.694Z,60.40
2018-08-12T21:27:24.873Z,61.60
2018-08-12T21:29:54.075Z,62.60
2018-08-12T21:32:23.257Z,61.40
2018-08-12T21:34:52.484Z,62.10
2018-08-12T21:37:21.692Z,61.60
2018-08-12T21:39:50.962Z,62.30
2018-08-12T21:42:20.133Z,62.00
2018-08-12T21:44:49.328Z,62.70
2018-08-12T21:47:18.583Z,62.80
2018-08-12T21:49:47.785Z,62.70
2018-08-12T21:52:16.949Z,63.40
2018-08-12T21:54:46.154Z,62.80
2018-08-12T21:57:15.360Z,63.20
2018-08-12T21:59:44.519Z,63.30
2018-08-12T22:02:13.705Z,63.70
2018-08-12T22:04:42.873Z,63.90
2018-08-12T22:07:12.061Z,64.30
2018-08-12T22:09:41.237Z,64.90
2018-08-12T22:12:10.427Z,64.90
2018-08-12T22:14:39.589Z,65.20
2018-08-12T22:17:08.789Z,65.30
2018-08-12T22:19:37.997Z,65.80
2018-08-12T22:22:07.217Z,65.70
2018-08-12T22:24:36.440Z,65.80
2018-08-12T22:27:05.668Z,66.10
2018-08-12T22:29:35.077Z,66.70
2018-08-12T22:32:04.253Z,67.10
2018-08-12T22:34:33.444Z,67.40
2018-08-12T22:37:02.604Z,67.60
2018-08-12T22:39:31.789Z,67.60
2018-08-12T22:42:01.030Z,68.00
2018-08-12T22:44:30.469Z,68.00
2018-08-12T22:46:59.670Z,68.30
2018-08-12T22:49:28.873Z,68.50
2018-08-12T22:51:58.043Z,69.20
2018-08-12T22:54:27.212Z,69.20
2018-08-12T22:56:56.380Z,69.40
2018-08-12T22:59:25.545Z,69.40
2018-08-12T23:01:54.773Z,69.80
2018-08-12T23:04:23.986Z,70.00
2018-08-12T23:06:53.152Z,70.30
2018-08-12T23:09:22.350Z,70.50
2018-08-12T23:11:51.777Z,70.40
2018-08-12T23:14:20.977Z,70.70
2018-08-12T23:17:00.625Z,70.60
2018-08-12T23:19:30.080Z,70.70
2018-08-12T23:21:59.512Z,71.10
2018-08-12T23:24:28.672Z,71.50
2018-08-12T23:26:57.854Z,71.50
2018-08-12T23:29:27.055Z,72.00
2018-08-12T23:31:56.337Z,72.30
2018-08-12T23:34:25.505Z,72.40
2018-08-12T23:36:54.657Z,72.40
2018-08-12T23:39:23.825Z,72.50
2018-08-12T23:41:52.988Z,72.70
2018-08-12T23:44:22.156Z,73.00
2018-08-12T23:46:51.353Z,73.00
2018-08-12T23:49:20.543Z,73.10
2018-08-12T23:51:49.745Z,73.20
2018-08-12T23:54:18.941Z,73.30
2018-08-12T23:56:48.097Z,73.10
2018-08-12T23:59:17.278Z,73.10
